Time;durP1;ratioP1;P1;durP2;ratioP2;P2;SDS_P1;SDS_P2;PMS_P1;PMS_P2;Temp;Humidity;BMP_temperature;BMP_pressure;BME280_temperature;BME280_humidity;BME280_pressure;Samples;Min_cycle;Max_cycle;Signal;HPM_P1;HPM_P2
2024/04/18 00:00:51;;;;;;;12.23;7.30;;;;;;;1.47;88.41;99466.47;1754322;81;25464;-59
2024/04/18 00:03:19;;;;;;;7.97;6.10;;;;;;;1.43;88.51;99466.72;1754268;81;25464;-59
2024/04/18 00:05:46;;;;;;;10.20;6.78;;;;;;;1.41;88.57;99465.66;1754367;81;25544;-58
2024/04/18 00:08:12;;;;;;;8.90;6.30;;;;;;;1.38;88.62;99464.89;1754354;81;27337;-60
2024/04/18 00:10:42;;;;;;;11.97;6.95;;;;;;;1.37;88.63;99465.16;1754256;81;25630;-59
2024/04/18 00:13:07;;;;;;;10.70;7.10;;;;;;;1.34;88.54;99466.47;1754076;81;25565;-60
2024/04/18 00:15:33;;;;;;;11.78;7.08;;;;;;;1.29;88.42;99469.95;1754326;81;25644;-59
2024/04/18 00:18:00;;;;;;;10.93;7.12;;;;;;;1.27;88.39;99466.73;1754345;81;25466;-60
2024/04/18 00:20:28;;;;;;;10.13;6.60;;;;;;;1.24;88.39;99475.80;1754342;81;27320;-60
2024/04/18 00:22:55;;;;;;;8.75;6.65;;;;;;;1.21;88.37;99471.82;1754256;81;25602;-59
2024/04/18 00:25:21;;;;;;;9.13;6.72;;;;;;;1.17;88.54;99473.94;1754262;81;25555;-60
2024/04/18 00:27:47;;;;;;;10.10;6.85;;;;;;;1.14;88.48;99473.14;1754306;81;25754;-60
2024/04/18 00:30:13;;;;;;;10.68;5.72;;;;;;;1.10;88.47;99476.33;1754272;81;25596;-60
2024/04/18 00:32:40;;;;;;;12.53;6.80;;;;;;;1.05;88.35;99480.86;1754306;81;28006;-60
2024/04/18 00:35:07;;;;;;;9.13;6.65;;;;;;;1.00;88.26;99478.98;1754159;81;25377;-60
2024/04/18 00:37:34;;;;;;;11.40;6.40;;;;;;;0.96;88.21;99485.92;1754339;81;25653;-60
2024/04/18 00:40:00;;;;;;;11.10;7.05;;;;;;;0.91;88.10;99483.25;1754300;81;25871;-59
2024/04/18 00:42:26;;;;;;;12.18;7.40;;;;;;;0.86;88.06;99480.03;1754370;81;25383;-60
2024/04/18 00:44:52;;;;;;;10.28;6.08;;;;;;;0.80;87.87;99474.97;1754334;81;27379;-60
2024/04/18 00:47:18;;;;;;;9.45;6.37;;;;;;;0.73;87.66;99469.89;1754264;81;25476;-58
2024/04/18 00:49:45;;;;;;;10.48;6.70;;;;;;;0.68;87.42;99473.88;1754351;81;25385;-60
2024/04/18 00:52:20;;;;;;;9.70;6.35;;;;;;;0.60;87.39;99473.88;1754273;81;25618;-59
2024/04/18 00:54:49;;;;;;;11.08;6.83;;;;;;;0.57;87.74;99477.06;1754400;81;25452;-59
2024/04/18 00:57:17;;;;;;;11.57;6.70;;;;;;;0.52;87.68;99479.70;1754477;81;27247;-60
2024/04/18 00:59:47;;;;;;;9.20;6.30;;;;;;;0.47;87.14;99490.34;1754244;81;25437;-59
2024/04/18 01:02:15;;;;;;;8.90;6.33;;;;;;;0.43;87.04;99487.41;1754630;81;25618;-60
2024/04/18 01:04:42;;;;;;;11.00;6.37;;;;;;;0.38;87.07;99486.59;1754430;81;25610;-58
2024/04/18 01:07:08;;;;;;;11.95;7.22;;;;;;;0.29;86.96;99481.77;1754504;81;25396;-59
2024/04/18 01:09:34;;;;;;;13.85;6.80;;;;;;;0.24;87.00;99484.41;1754489;81;27246;-59
2024/04/18 01:12:01;;;;;;;9.55;7.08;;;;;;;0.17;87.06;99481.16;1754419;81;25489;-60
2024/04/18 01:14:28;;;;;;;10.48;6.33;;;;;;;0.13;87.29;99482.22;1754397;81;25765;-58
2024/04/18 01:16:54;;;;;;;10.03;6.37;;;;;;;0.07;87.44;99479.28;1754364;81;25641;-59
2024/04/18 01:19:20;;;;;;;11.10;6.70;;;;;;;0.03;87.43;99479.52;1754495;81;25405;-60
2024/04/18 01:21:47;;;;;;;10.00;6.80;;;;;;;-0.02;87.57;99484.80;1754490;81;27415;-59
2024/04/18 01:24:15;;;;;;;11.53;6.87;;;;;;;-0.05;87.76;99488.80;1754364;81;25622;-60
2024/04/18 01:26:42;;;;;;;11.45;7.10;;;;;;;-0.08;87.78;99492.50;1754518;81;25547;-60
2024/04/18 01:29:08;;;;;;;12.07;7.78;;;;;;;-0.10;87.61;99486.11;1754365;81;25609;-60
2024/04/18 01:31:34;;;;;;;12.70;8.10;;;;;;;-0.12;87.75;99484.25;1754540;81;25614;-60
2024/04/18 01:34:00;;;;;;;16.73;9.78;;;;;;;-0.13;88.00;99482.63;1754441;81;27414;-60
2024/04/18 01:36:27;;;;;;;13.00;8.35;;;;;;;-0.13;88.18;99485.83;1754307;81;25428;-60
2024/04/18 01:38:54;;;;;;;16.07;10.43;;;;;;;-0.13;88.21;99483.97;1754442;81;25565;-59
2024/04/18 01:41:21;;;;;;;15.90;9.88;;;;;;;-0.13;88.52;99483.17;1754392;81;25685;-60
2024/04/18 01:43:48;;;;;;;17.42;10.40;;;;;;;-0.14;88.61;99491.66;1754435;81;25508;-58
2024/04/18 01:46:15;;;;;;;15.03;10.55;;;;;;;-0.15;88.68;99490.07;1754420;81;27917;-59
2024/04/18 01:48:46;;;;;;;20.45;10.78;;;;;;;-0.18;88.74;99491.91;1754326;81;25453;-58
2024/04/18 01:51:13;;;;;;;15.75;10.03;;;;;;;-0.20;88.79;99492.70;1754455;81;25463;-60
2024/04/18 01:53:39;;;;;;;17.60;9.50;;;;;;;-0.22;88.72;99486.85;1754339;81;25590;-60
2024/04/18 01:56:07;;;;;;;17.48;9.15;;;;;;;-0.25;88.66;99492.67;1754430;81;25553;-61
2024/04/18 01:58:33;;;;;;;17.12;9.73;;;;;;;-0.29;88.51;99493.72;1754418;81;27352;-58
2024/04/18 02:01:00;;;;;;;14.63;8.68;;;;;;;-0.33;88.30;99497.13;1754329;81;25707;-59
2024/04/18 02:03:26;;;;;;;14.40;8.53;;;;;;;-0.38;88.02;99495.23;1754390;81;25417;-60
2024/04/18 02:05:52;;;;;;;14.05;9.05;;;;;;;-0.44;87.82;99497.61;1754430;81;25616;-59
2024/04/18 02:08:18;;;;;;;15.95;9.15;;;;;;;-0.50;87.96;99499.41;1754442;81;25443;-59
2024/04/18 02:10:45;;;;;;;14.58;9.23;;;;;;;-0.53;88.05;99495.92;1754418;81;28028;-59
2024/04/18 02:13:11;;;;;;;18.05;9.15;;;;;;;-0.58;87.99;99500.69;1754287;81;25626;-58
2024/04/18 02:15:37;;;;;;;14.93;9.33;;;;;;;-0.61;87.97;99501.20;1754318;81;25487;-59
2024/04/18 02:18:04;;;;;;;14.07;9.63;;;;;;;-0.64;87.88;99507.55;1754375;81;25571;-58
2024/04/18 02:20:30;;;;;;;16.07;9.78;;;;;;;-0.65;88.40;99504.61;1754422;81;25465;-60
2024/04/18 02:22:56;;;;;;;17.25;10.10;;;;;;;-0.66;88.49;99514.44;1754358;81;27374;-59
2024/04/18 02:25:23;;;;;;;18.67;10.35;;;;;;;-0.67;88.33;99512.82;1754265;81;25570;-59
2024/04/18 02:27:49;;;;;;;19.50;11.20;;;;;;;-0.67;88.65;99512.03;1754408;81;25570;-59
2024/04/18 02:30:15;;;;;;;19.60;11.85;;;;;;;-0.68;89.00;99506.44;1754442;81;25618;-59
2024/04/18 02:32:42;;;;;;;19.82;11.38;;;;;;;-0.68;89.31;99509.09;1754362;81;25377;-58
2024/04/18 02:35:08;;;;;;;20.77;11.48;;;;;;;-0.68;89.36;99507.25;1754378;81;27393;-59
2024/04/18 02:37:35;;;;;;;20.43;11.35;;;;;;;-0.68;89.38;99512.56;1754288;81;25634;-60
2024/04/18 02:40:02;;;;;;;18.07;10.90;;;;;;;-0.68;89.28;99506.44;1754335;81;25389;-58
2024/04/18 02:42:31;;;;;;;18.45;10.98;;;;;;;-0.68;89.56;99511.75;1754352;81;25615;-59
2024/04/18 02:45:03;;;;;;;18.45;11.90;;;;;;;-0.67;89.51;99516.02;1754382;81;25641;-59
2024/04/18 02:47:27;;;;;;;19.15;11.28;;;;;;;-0.66;89.86;99515.77;1753926;81;28074;-59
2024/04/18 02:49:54;;;;;;;18.17;11.22;;;;;;;-0.65;89.93;99512.03;1754284;81;25575;-60
2024/04/18 02:52:20;;;;;;;22.80;12.95;;;;;;;-0.64;90.08;99517.64;1754341;81;25564;-58
2024/04/18 02:54:46;;;;;;;24.18;12.80;;;;;;;-0.64;90.06;99512.86;1754332;81;25671;-58
2024/04/18 02:57:12;;;;;;;20.27;11.12;;;;;;;-0.63;90.08;99503.81;1754362;81;25544;-59
2024/04/18 02:59:39;;;;;;;19.30;11.60;;;;;;;-0.65;89.97;99506.72;1754371;81;27340;-59
2024/04/18 03:02:05;;;;;;;23.62;12.30;;;;;;;-0.65;90.06;99506.72;1754265;81;25634;-59
2024/04/18 03:04:32;;;;;;;19.87;11.90;;;;;;;-0.65;90.19;99508.05;1754325;81;25555;-59
2024/04/18 03:06:59;;;;;;;28.12;12.50;;;;;;;-0.64;90.02;99499.58;1754301;81;26247;-59
2024/04/18 03:09:25;;;;;;;18.23;11.60;;;;;;;-0.65;90.08;99501.41;1754364;81;25594;-59
2024/04/18 03:11:52;;;;;;;22.70;12.70;;;;;;;-0.65;90.10;99505.93;1754360;81;27401;-59
2024/04/18 03:14:18;;;;;;;18.98;12.07;;;;;;;-0.67;90.18;99502.20;1755217;81;25534;-58
2024/04/18 03:16:44;;;;;;;19.65;12.33;;;;;;;-0.69;90.05;99500.86;1766253;81;25456;-58
2024/04/18 03:19:12;;;;;;;20.52;12.07;;;;;;;-0.69;90.01;99506.97;1766150;81;25675;-59
2024/04/18 03:21:38;;;;;;;23.70;13.22;;;;;;;-0.70;89.99;99503.23;1766241;81;25640;-59
2024/04/18 03:24:20;;;;;;;24.37;12.90;;;;;;;-0.71;90.06;99507.76;1766194;81;27536;-60
2024/04/18 03:26:49;;;;;;;24.05;12.18;;;;;;;-0.72;90.05;99500.83;1766171;81;25584;-58
2024/04/18 03:29:17;;;;;;;20.37;12.20;;;;;;;-0.74;89.88;99504.27;1766338;81;25558;-59
2024/04/18 03:31:48;;;;;;;18.92;12.63;;;;;;;-0.78;89.89;99510.63;1766165;81;25659;-58
2024/04/18 03:34:14;;;;;;;19.17;12.33;;;;;;;-0.84;89.39;99506.84;1766277;81;25436;-59
2024/04/18 03:36:43;;;;;;;20.10;11.22;;;;;;;-0.91;89.24;99507.05;1766188;81;28141;-60
2024/04/18 03:39:09;;;;;;;15.72;9.13;;;;;;;-0.98;89.10;99509.91;1766343;81;25621;-59
2024/04/18 03:41:38;;;;;;;19.35;12.15;;;;;;;-1.02;89.13;99509.33;1766312;81;25574;-59
2024/04/18 03:44:07;;;;;;;19.20;12.18;;;;;;;-1.04;89.22;99518.07;1766254;81;25695;-59
2024/04/18 03:46:37;;;;;;;21.25;12.23;;;;;;;-1.05;89.45;99521.26;1766350;81;25490;-59
2024/04/18 03:49:05;;;;;;;21.02;11.97;;;;;;;-1.04;89.71;99522.05;1766241;81;29489;-61
2024/04/18 03:51:31;;;;;;;20.55;12.40;;;;;;;-1.06;89.76;99519.65;1766104;81;25374;-59
2024/04/18 03:53:57;;;;;;;23.77;11.85;;;;;;;-1.06;89.67;99522.84;1766270;81;25445;-60
2024/04/18 03:56:23;;;;;;;19.35;11.90;;;;;;;-1.07;89.69;99527.35;1766301;81;25631;-60
2024/04/18 03:58:55;;;;;;;19.65;11.60;;;;;;;-1.09;89.75;99526.81;1766305;81;25607;-59
2024/04/18 04:01:25;;;;;;;17.90;11.45;;;;;;;-1.09;89.87;99528.13;1766202;81;27316;-61
2024/04/18 04:03:50;;;;;;;22.70;12.45;;;;;;;-1.08;90.07;99531.58;1766054;80;25475;-59
2024/04/18 04:06:16;;;;;;;19.62;11.53;;;;;;;-1.10;90.23;99523.08;1766144;81;25554;-60
2024/04/18 04:08:42;;;;;;;22.07;11.93;;;;;;;-1.08;90.37;99524.41;1766189;81;34634;-59
2024/04/18 04:11:08;;;;;;;23.75;12.47;;;;;;;-1.05;90.57;99531.09;1766145;81;25414;-60
2024/04/18 04:13:34;;;;;;;20.88;12.35;;;;;;;-1.02;90.67;99531.89;1766186;81;27375;-59
2024/04/18 04:16:00;;;;;;;18.80;12.40;;;;;;;-0.97;90.87;99538.58;1761112;80;25459;-60
2024/04/18 04:18:27;;;;;;;20.75;12.70;;;;;;;-0.95;90.94;99535.95;1758620;81;25450;-60
2024/04/18 04:20:53;;;;;;;20.50;13.22;;;;;;;-0.90;91.02;99538.38;1758577;81;25762;-60
2024/04/18 04:23:19;;;;;;;21.85;11.97;;;;;;;-0.86;91.12;99540.82;1758581;81;25579;-60
2024/04/18 04:25:46;;;;;;;19.75;11.90;;;;;;;-0.83;91.35;99531.82;1758576;81;27342;-61
2024/04/18 04:28:12;;;;;;;20.17;12.25;;;;;;;-0.79;91.58;99529.46;1734463;81;25489;-58
2024/04/18 04:30:38;;;;;;;20.30;11.95;;;;;;;-0.72;91.75;99534.03;1758601;81;25576;-60
2024/04/18 04:33:06;;;;;;;21.25;11.97;;;;;;;-0.68;91.94;99529.83;1758557;81;25614;-60
2024/04/18 04:35:32;;;;;;;17.77;11.03;;;;;;;-0.60;92.22;99539.17;1758602;81;25477;-60
2024/04/18 04:37:59;;;;;;;24.20;12.82;;;;;;;-0.54;92.65;99538.17;1758640;81;29585;-60
2024/04/18 04:40:25;;;;;;;26.07;11.93;;;;;;;-0.47;92.99;99539.30;1758465;81;25622;-60
2024/04/18 04:42:52;;;;;;;19.82;13.28;;;;;;;-0.39;93.34;99541.48;1758616;81;25388;-61
2024/04/18 04:45:18;;;;;;;23.45;11.75;;;;;;;-0.32;93.50;99537.25;1758520;81;25627;-61
2024/04/18 04:47:44;;;;;;;18.87;12.45;;;;;;;-0.25;93.65;99539.19;1758562;81;25543;-61
2024/04/18 04:50:10;;;;;;;18.75;12.20;;;;;;;-0.17;94.02;99540.55;1758592;81;27383;-61
2024/04/18 04:52:36;;;;;;;20.23;11.60;;;;;;;-0.09;94.19;99544.86;1758521;81;25566;-61
2024/04/18 04:55:03;;;;;;;21.30;12.28;;;;;;;-0.02;94.46;99544.63;1758540;81;25404;-61
2024/04/18 04:57:29;;;;;;;17.30;11.25;;;;;;;0.06;94.67;99542.03;1758555;81;25667;-60
2024/04/18 04:59:56;;;;;;;20.00;11.70;;;;;;;0.14;94.78;99542.88;1758562;81;25599;-60
2024/04/18 05:02:23;;;;;;;20.68;11.85;;;;;;;0.21;94.94;99542.11;1758540;81;27328;-59
2024/04/18 05:04:50;;;;;;;17.37;11.45;;;;;;;0.31;95.12;99546.15;1758470;81;25438;-60
2024/04/18 05:07:16;;;;;;;23.27;12.63;;;;;;;0.40;95.33;99550.98;1758604;81;25573;-59
2024/04/18 05:09:43;;;;;;;19.50;12.88;;;;;;;0.45;95.49;99547.80;1758501;81;25651;-58
2024/04/18 05:12:09;;;;;;;20.85;12.25;;;;;;;0.55;95.70;99549.17;1758623;81;25449;-59
2024/04/18 05:14:35;;;;;;;23.38;13.05;;;;;;;0.69;96.26;99552.14;1758026;81;27301;-60
2024/04/18 05:17:05;;;;;;;21.57;12.40;;;;;;;0.81;96.57;99548.47;1764685;80;26003;-59
2024/04/18 05:19:31;;;;;;;22.17;12.88;;;;;;;0.91;96.63;99549.28;1765859;81;25605;-59
2024/04/18 05:21:58;;;;;;;18.57;12.60;;;;;;;1.02;96.61;99551.45;1765881;81;25615;-60
2024/04/18 05:24:24;;;;;;;17.52;11.28;;;;;;;1.14;96.68;99551.17;1765879;81;25705;-59
2024/04/18 05:26:51;;;;;;;20.17;11.35;;;;;;;1.23;96.63;99553.61;1765853;81;27207;-59
2024/04/18 05:32:02;;;;;;;16.93;11.60;;;;;;;1.43;96.65;99559.49;1766193;81;25401;-59
2024/04/18 05:34:30;;;;;;;19.95;11.25;;;;;;;1.58;96.68;99565.33;1766127;81;25614;-60
2024/04/18 05:36:57;;;;;;;19.25;11.40;;;;;;;1.71;96.86;99563.22;1766182;81;25632;-58
2024/04/18 05:39:23;;;;;;;19.12;11.78;;;;;;;1.84;96.80;99567.47;1766165;81;27334;-58
2024/04/18 05:41:49;;;;;;;20.15;12.05;;;;;;;1.98;96.59;99563.71;1766088;81;25562;-58
2024/04/18 05:44:16;;;;;;;18.55;11.57;;;;;;;2.08;96.28;99567.42;1766105;81;25611;-58
2024/04/18 05:46:42;;;;;;;19.70;11.73;;;;;;;2.19;96.05;99571.12;1766121;81;25437;-60
2024/04/18 05:49:08;;;;;;;16.05;11.33;;;;;;;2.33;96.21;99568.69;1766321;81;25551;-60
2024/04/18 05:51:34;;;;;;;20.40;11.60;;;;;;;2.50;96.35;99571.03;1766284;81;27880;-60
2024/04/18 05:54:01;;;;;;;18.57;11.43;;;;;;;2.70;96.86;99573.38;1766161;81;26008;-60
2024/04/18 05:56:27;;;;;;;15.85;11.50;;;;;;;2.90;96.82;99579.95;1766295;81;25393;-60
2024/04/18 05:58:53;;;;;;;16.93;10.88;;;;;;;3.09;96.53;99572.64;1766240;81;26216;-59
2024/04/18 06:01:19;;;;;;;18.23;11.33;;;;;;;3.29;96.81;99576.52;1740316;81;25566;-60
2024/04/18 06:03:45;;;;;;;17.05;11.75;;;;;;;3.51;97.12;99574.76;1766273;81;27436;-62
2024/04/18 06:06:11;;;;;;;19.80;11.50;;;;;;;3.76;97.34;99574.28;1766175;81;25865;-60
2024/04/18 06:08:38;;;;;;;16.62;10.38;;;;;;;3.97;96.02;99570.08;1766294;81;25571;-59
2024/04/18 06:11:05;;;;;;;15.03;10.23;;;;;;;4.19;95.14;99578.44;1766203;81;25622;-60
2024/04/18 06:13:36;;;;;;;15.50;9.43;;;;;;;4.38;94.76;99578.50;1766300;81;25570;-60
2024/04/18 06:16:00;;;;;;;13.95;8.35;;;;;;;4.64;94.84;99584.34;1765993;80;27290;-60
2024/04/18 06:18:29;;;;;;;13.15;8.88;;;;;;;4.93;94.55;99582.67;1766195;81;25611;-62
2024/04/18 06:20:55;;;;;;;15.45;8.85;;;;;;;5.21;94.53;99582.27;1766325;81;25411;-59
2024/04/18 06:23:21;;;;;;;20.48;8.85;;;;;;;5.48;93.63;99582.94;1766287;81;25601;-60
2024/04/18 06:25:48;;;;;;;36.10;11.35;;;;;;;5.74;92.44;99586.58;1766340;81;25567;-60
2024/04/18 06:28:15;;;;;;;12.85;7.60;;;;;;;6.04;92.42;99583.14;1766249;81;28175;-59
2024/04/18 06:30:42;;;;;;;9.03;6.67;;;;;;;6.32;90.92;99592.83;1765905;81;25657;-58
2024/04/18 06:33:08;;;;;;;11.80;7.30;;;;;;;6.63;90.72;99586.07;1765190;81;25736;-60
2024/04/18 06:35:34;;;;;;;9.53;6.45;;;;;;;6.92;90.00;99592.45;1765076;81;26578;-60
2024/04/18 06:38:03;;;;;;;7.30;6.08;;;;;;;7.10;88.01;99590.73;1765153;81;25733;-59
2024/04/18 06:40:29;;;;;;;12.07;7.08;;;;;;;7.28;87.09;99589.77;1765089;81;27678;-59
2024/04/18 06:42:55;;;;;;;9.38;6.30;;;;;;;7.66;87.73;99591.31;1765067;81;25666;-59
2024/04/18 06:45:23;;;;;;;7.25;5.30;;;;;;;7.95;85.99;99592.23;1765069;81;26185;-62
2024/04/18 06:47:50;;;;;;;8.85;5.80;;;;;;;7.96;82.23;99594.37;1766178;81;25675;-59
2024/04/18 06:50:18;;;;;;;9.15;5.53;;;;;;;7.89;81.62;99600.19;1766267;81;25540;-59
2024/04/18 06:52:45;;;;;;;;;;;;;;;8.09;82.99;99602.11;1768862;81;27345;-57
2024/04/18 06:55:11;;;;;;;6.97;5.22;;;;;;;8.31;80.02;99616.90;1766133;81;33020;-59
2024/04/18 06:57:38;;;;;;;7.30;5.58;;;;;;;8.31;80.02;99616.90;1766226;81;25440;-59
2024/04/18 07:00:08;;;;;;;8.38;5.62;;;;;;;8.28;79.18;99605.39;1766186;81;25961;-59
2024/04/18 07:02:34;;;;;;;6.08;4.62;;;;;;;8.62;81.90;99608.58;1766307;81;25630;-59
2024/04/18 07:05:00;;;;;;;9.48;5.78;;;;;;;9.01;82.22;99605.02;1766203;81;27341;-60
2024/04/18 07:07:26;;;;;;;6.85;5.22;;;;;;;9.31;81.14;99607.89;1766105;81;25630;-60
2024/04/18 07:09:54;;;;;;;6.55;5.28;;;;;;;9.33;77.99;99609.18;1766222;81;25570;-60
2024/04/18 07:12:21;;;;;;;9.80;5.25;;;;;;;9.20;76.14;99618.21;1766215;81;26390;-59
2024/04/18 07:14:49;;;;;;;7.10;5.25;;;;;;;9.04;75.64;99624.62;1766252;81;25450;-60
2024/04/18 07:17:15;;;;;;;5.10;4.30;;;;;;;9.12;76.16;99609.55;1760622;80;28037;-58
2024/04/18 07:19:42;;;;;;;7.72;4.47;;;;;;;9.54;76.64;99616.64;1758498;81;25382;-59
2024/04/18 07:22:10;;;;;;;6.80;4.10;;;;;;;9.66;74.93;99620.05;1758644;81;25535;-58
2024/04/18 07:24:42;;;;;;;7.03;5.08;;;;;;;9.68;73.93;99618.61;1758608;81;25616;-59
2024/04/18 07:27:08;;;;;;;7.40;4.47;;;;;;;9.66;73.91;99624.89;1758448;81;25463;-58
2024/04/18 07:29:34;;;;;;;4.95;4.25;;;;;;;9.71;73.49;99622.59;1758635;81;28106;-60
2024/04/18 07:32:00;;;;;;;5.55;3.65;;;;;;;10.16;74.84;99629.50;1758529;81;25608;-60
2024/04/18 07:34:28;;;;;;;37.00;34.43;;;;;;;10.56;73.47;99615.16;1758685;81;25381;-60
2024/04/18 07:36:54;;;;;;;5.45;3.83;;;;;;;11.15;75.00;99617.61;1758616;81;26311;-59
2024/04/18 07:39:20;;;;;;;9.03;4.47;;;;;;;11.53;70.79;99620.20;1758654;81;25630;-59
2024/04/18 07:41:48;;;;;;;7.78;4.78;;;;;;;11.33;69.19;99627.77;1758626;81;27674;-60
2024/04/18 07:44:15;;;;;;;6.45;4.15;;;;;;;11.08;67.90;99624.89;1758555;81;25616;-59
2024/04/18 07:46:44;;;;;;;5.17;4.08;;;;;;;10.67;65.64;99627.75;1758609;81;25619;-60
2024/04/18 07:49:11;;;;;;;4.75;3.95;;;;;;;10.19;65.11;99625.59;1758724;81;25674;-59
2024/04/18 07:51:38;;;;;;;9.05;3.95;;;;;;;10.07;66.69;99622.20;1758658;81;25209;-58
2024/04/18 07:54:05;;;;;;;4.12;3.42;;;;;;;10.30;68.34;99620.65;1734661;81;27728;-60
2024/04/18 07:56:32;;;;;;;6.72;3.50;;;;;;;10.84;69.74;99620.11;1758554;81;25630;-59
2024/04/18 07:58:59;;;;;;;4.85;3.25;;;;;;;11.51;68.61;99621.63;1758623;81;25615;-59
2024/04/18 08:01:45;;;;;;;5.03;3.52;;;;;;;11.67;66.24;99621.27;1734758;81;25591;-60
2024/04/18 08:04:11;;;;;;;4.90;3.65;;;;;;;11.50;64.34;99627.63;1805545;79;25830;-59
2024/04/18 08:06:38;;;;;;;4.80;3.60;;;;;;;11.18;63.52;99629.92;1805353;79;27913;-59
2024/04/18 08:09:04;;;;;;;5.92;3.27;;;;;;;10.97;63.66;99627.20;1828277;78;25720;-59
2024/04/18 08:11:31;;;;;;;4.60;3.05;;;;;;;11.00;64.25;99626.55;1794015;79;26286;-58
2024/04/18 08:13:57;;;;;;;4.95;3.40;;;;;;;11.01;63.77;99629.47;1828302;78;25676;-59
2024/04/18 08:16:24;;;;;;;4.60;3.20;;;;;;;10.92;63.06;99626.60;1820607;78;26174;-60
2024/04/18 08:18:50;;;;;;;3.98;3.45;;;;;;;10.67;62.66;99625.05;1805363;79;27236;-59
2024/04/18 08:21:16;;;;;;;5.20;3.52;;;;;;;10.39;61.90;99624.13;1829201;78;25694;-60
2024/04/18 08:23:50;;;;;;;6.22;3.70;;;;;;;10.09;61.73;99625.37;1795588;79;25481;-60
2024/04/18 08:26:10;;;;;;;8.05;5.58;;;;;;;9.72;61.48;99624.16;1828128;78;25491;-60
2024/04/18 08:28:36;;;;;;;12.47;9.85;;;;;;;9.36;61.56;99627.98;1822266;78;25390;-60
2024/04/18 08:31:02;;;;;;;12.70;8.35;;;;;;;9.05;62.16;99627.55;1806992;79;27917;-62
2024/04/18 08:33:28;;;;;;;6.10;3.40;;;;;;;8.79;62.82;99628.84;1830013;78;25588;-60
2024/04/18 08:35:55;;;;;;;4.25;3.75;;;;;;;8.59;63.26;99628.28;1795651;79;25583;-59
2024/04/18 08:38:21;;;;;;;4.40;2.98;;;;;;;8.52;64.78;99629.86;1829984;78;26030;-58
2024/04/18 08:40:50;;;;;;;7.28;3.02;;;;;;;8.72;66.33;99619.86;1822146;78;25442;-60
2024/04/18 08:43:17;;;;;;;3.80;3.00;;;;;;;8.95;64.99;99619.19;1806709;79;27840;-60
2024/04/18 08:45:45;;;;;;;3.87;2.80;;;;;;;9.06;65.38;99621.05;1829629;78;25410;-65
2024/04/18 08:48:13;;;;;;;6.17;3.42;;;;;;;9.21;65.36;99629.26;1795705;79;25477;-64
2024/04/18 08:50:46;;;;;;;3.05;2.75;;;;;;;9.25;65.07;99625.37;1829745;78;26034;-64
2024/04/18 08:53:12;;;;;;;4.00;3.08;;;;;;;9.14;63.95;99620.28;1821903;78;25382;-65
2024/04/18 08:55:44;;;;;;;4.75;2.98;;;;;;;9.39;64.48;99622.52;1829781;78;27326;-65
2024/04/18 08:58:13;;;;;;;3.95;2.90;;;;;;;9.57;64.42;99622.76;1829743;78;25417;-65
2024/04/18 09:00:49;;;;;;;;;;;;;;;9.71;63.50;99622.59;1824632;78;25603;-63
2024/04/18 09:03:12;;;;;;;76.53;71.70;;;;;;;9.64;62.52;99620.94;1831332;77;25747;-63
2024/04/18 09:05:43;;;;;;;77.60;72.58;;;;;;;9.44;62.44;99616.39;1835976;77;25529;-63
2024/04/18 09:08:12;;;;;;;71.97;67.27;;;;;;;9.24;62.34;99615.11;1835965;77;27298;-63
2024/04/18 09:10:42;;;;;;;123.60;111.20;;;;;;;9.07;62.43;99609.14;1835908;78;25355;-59
2024/04/18 09:13:11;;;;;;;;;;;;;;;8.93;62.80;99614.67;1838754;77;25588;-58
2024/04/18 09:15:37;;;;;;;;;;;;;;;8.93;62.95;99614.67;1838764;77;25697;-59
2024/04/18 09:18:07;;;;;;;81.28;74.85;;;;;;;8.97;63.25;99611.59;1835946;78;25607;-64
2024/04/18 09:20:38;;;;;;;70.85;66.40;;;;;;;9.03;63.13;99621.67;1835897;78;28018;-65
2024/04/18 09:23:06;;;;;;;71.12;66.53;;;;;;;9.06;63.29;99614.31;1836010;77;25563;-65
2024/04/18 09:25:32;;;;;;;71.62;67.12;;;;;;;9.16;63.59;99621.31;1836032;78;25534;-64
2024/04/18 09:28:00;;;;;;;48.65;45.60;;;;;;;9.21;62.66;99617.64;1835978;78;25967;-64
2024/04/18 09:30:28;;;;;;;67.25;63.13;;;;;;;9.19;62.18;99613.91;1836102;78;25385;-65
2024/04/18 09:32:56;;;;;;;70.40;65.97;;;;;;;9.08;62.08;99604.55;1836017;77;28191;-65
2024/04/18 09:35:28;;;;;;;48.90;45.83;;;;;;;9.08;62.20;99616.70;1836053;78;25606;-65
2024/04/18 09:37:56;;;;;;;67.90;63.68;;;;;;;9.09;62.32;99611.52;1836123;77;25571;-65
2024/04/18 09:40:28;;;;;;;4.55;3.55;;;;;;;9.17;62.67;99613.44;1835977;78;25620;-64
2024/04/18 09:43:16;;;;;;;4.85;3.33;;;;;;;9.31;63.25;99615.98;1836131;77;25597;-65
2024/04/18 09:46:02;;;;;;;5.50;3.47;;;;;;;9.61;64.18;99616.16;1835977;78;28097;-65
2024/04/18 09:48:49;;;;;;;3.67;3.12;;;;;;;9.72;63.15;99610.12;1834420;78;25480;-65
2024/04/18 09:51:19;;;;;;;3.58;3.27;;;;;;;9.67;62.08;99618.92;1807911;78;25466;-65
2024/04/18 09:53:47;;;;;;;12.45;8.53;;;;;;;9.54;61.56;99615.30;1836155;78;26648;-60
2024/04/18 09:56:17;;;;;;;39.48;31.37;;;;;;;9.40;61.24;99616.80;1836181;78;25408;-60
2024/04/18 09:58:46;;;;;;;4.78;3.70;;;;;;;9.29;61.66;99609.55;1836168;78;27317;-58
2024/04/18 10:01:15;;;;;;;5.95;3.92;;;;;;;9.31;62.44;99610.06;1836154;78;25616;-58
2024/04/18 10:03:43;;;;;;;;;;;;;;;9.58;64.08;99605.43;1838655;78;25823;-59
2024/04/18 10:06:13;;;;;;;5.60;3.55;;;;;;;9.86;63.21;99599.13;1835967;77;25665;-59
2024/04/18 10:08:49;;;;;;;5.78;3.45;;;;;;;10.08;62.86;99598.13;1836132;78;25560;-58
2024/04/18 10:11:21;;;;;;;5.65;3.30;;;;;;;10.41;62.31;99590.80;1836135;78;27349;-58
2024/04/18 10:13:52;;;;;;;4.87;3.42;;;;;;;10.73;63.11;99594.00;1836009;78;25375;-57
2024/04/18 10:16:19;;;;;;;4.53;3.10;;;;;;;11.14;62.69;99588.97;1836126;78;25596;-58
2024/04/18 10:18:46;;;;;;;3.02;2.72;;;;;;;11.74;61.72;99594.42;1836039;78;26247;-57
2024/04/18 10:21:16;;;;;;;5.08;3.10;;;;;;;12.21;60.91;99589.28;1836116;78;25175;-57
2024/04/18 10:23:51;;;;;;;5.53;3.55;;;;;;;12.22;57.95;99590.06;1836092;77;27292;-57
2024/04/18 10:26:22;;;;;;;4.90;3.83;;;;;;;12.00;57.58;99598.81;1835978;78;25455;-57
2024/04/18 10:28:51;;;;;;;5.25;3.72;;;;;;;11.68;56.34;99599.02;1836070;78;25528;-57
2024/04/18 10:31:19;;;;;;;4.70;4.20;;;;;;;11.12;55.66;99622.34;1835981;77;25524;-58
2024/04/18 10:33:45;;;;;;;6.65;4.12;;;;;;;10.41;57.18;99632.70;1836013;78;25588;-57
2024/04/18 10:36:16;;;;;;;7.08;4.37;;;;;;;9.85;58.45;99628.59;1835973;78;28307;-58
2024/04/18 10:38:46;;;;;;;4.87;3.70;;;;;;;9.42;60.13;99638.08;1836176;78;25571;-56
2024/04/18 10:41:17;;;;;;;5.53;3.80;;;;;;;9.06;61.40;99626.98;1836044;78;25626;-58
2024/04/18 10:43:45;;;;;;;3.72;3.22;;;;;;;8.76;62.60;99628.90;1836006;78;25769;-57
2024/04/18 10:46:13;;;;;;;3.35;3.02;;;;;;;8.60;63.76;99632.58;1836198;78;25535;-58
2024/04/18 10:48:42;;;;;;;4.35;3.20;;;;;;;8.54;64.75;99627.64;1835980;78;27382;-57
2024/04/18 10:51:09;;;;;;;3.62;3.10;;;;;;;8.52;65.99;99623.91;1835963;78;25556;-55
2024/04/18 10:53:38;;;;;;;5.95;3.10;;;;;;;8.52;66.84;99621.21;1836106;77;25385;-64
2024/04/18 10:56:06;;;;;;;4.08;3.20;;;;;;;8.58;67.87;99617.81;1836317;78;26042;-65
2024/04/18 10:58:34;;;;;;;73.17;68.45;;;;;;;8.68;69.31;99621.58;1836260;78;25598;-64
2024/04/18 11:01:02;;;;;;;71.17;66.50;;;;;;;8.78;69.97;99615.92;1836355;78;27959;-64
2024/04/18 11:03:30;;;;;;;49.67;46.48;;;;;;;9.02;70.31;99612.55;1836030;77;25698;-65
2024/04/18 11:05:59;;;;;;;14.65;13.85;;;;;;;9.21;70.47;99603.63;1836046;78;25546;-65
2024/04/18 11:08:26;;;;;;;49.03;45.80;;;;;;;8.86;70.60;99490.84;1836272;78;26239;-57
2024/04/18 11:10:53;;;;;;;227.18;186.73;;;;;;;9.85;71.42;99604.28;1836279;78;25599;-59
2024/04/18 11:13:20;;;;;;;14.60;11.63;;;;;;;10.23;71.20;99618.44;1836296;77;27344;-61
2024/04/18 11:15:50;;;;;;;6.47;4.42;;;;;;;10.50;70.12;99615.09;1836141;78;25653;-59
2024/04/18 11:18:17;;;;;;;13.22;10.15;;;;;;;10.65;69.75;99613.20;1808142;78;25391;-58
2024/04/18 11:20:45;;;;;;;8.68;5.62;;;;;;;11.24;70.35;99617.55;1836219;77;26287;-63
2024/04/18 11:23:13;;;;;;;4.08;3.58;;;;;;;11.51;68.58;99617.58;1836184;78;25422;-61
2024/04/18 11:25:41;;;;;;;6.12;3.70;;;;;;;11.61;66.50;99621.80;1836137;78;27368;-61
2024/04/18 11:28:09;;;;;;;72.30;67.80;;;;;;;11.49;65.34;99622.53;1836017;78;25362;-60
2024/04/18 11:30:40;;;;;;;73.02;68.62;;;;;;;11.27;63.35;99618.24;1835976;77;25446;-61
2024/04/18 11:33:10;;;;;;;72.92;68.52;;;;;;;10.97;62.33;99616.94;1835958;78;25791;-61